Gardner, MA (01440)

8:39 AM EDT on August 05, 2015 (GMT -0400)
City of Gardner Greenwood st. | | Change Station
CLOSE
Current Station
Personal Weather Station
Location: Gardner, MA
Elevation: 1089 ft
Nearby Weather Stations

Elev 1089 ft 42.57 °N, 72.00 °W | Updated 16 seconds ago

Clear
Clear
70.3 °F
Feels Like 74 °F
N
0.0
Wind Variable Wind from NNW
Gusts 0.0 mph

Today
High -- | Low -- °F
--% Chance of Precip.
Yesterday
High -- | Low -- °F
Precip. -- in
5:43 AM 8:03 PM
Waning Gibbous, 67% visible
Pressure 29.89 in
Visibility 10.0 miles
Clouds Clear
Heat Index 74 °F
Dew Point 61 °F
Humidity 71%
Rainfall 0.00 in
Snow Depth Not available.
UV 1.0 out of 12
Pollen 4.80 out of 12
Air Quality Not available.
Flu Activity Not available.
METAR KFIT 051152Z AUTO 28008KT 10SM CLR 21/15 A2989 RMK AO2 SLP122 70058 T02060150 10206 20156 51001

More Conditions Fewer Conditions

Pressure 29.89 in
Visibility 10.0 miles
Clouds Clear
Heat Index 74 °F
Dew Point 61 °F
Humidity 71%
Rainfall 0.00 in
Snow Depth Not available.
UV 1.0 out of 12
Pollen 4.80 out of 12
Air Quality Not available.
Flu Activity Not available.
METAR KFIT 051152Z AUTO 28008KT 10SM CLR 21/15 A2989 RMK AO2 SLP122 70058 T02060150 10206 20156 51001

More Conditions Fewer Conditions

10-Day Weather Forecast

×

Almanac

Astronomy

Aug. 05, 2015 Rise Set
Actual Time
Civil Twilight
Nautical Twilight
Astronomical Twilight
Moon
Length of Visible Light
Length of Day
Tomorrow will be .
, % of the Moon is Illuminated

Today's Extremes

State Highs State Lows

Community

WunderPhotos

Upload Photos

1,844,170 photos uploaded!

WunderBlogs® & News

Nearby

Air Quality

  Air Quality AQ Index Pollutant
Not available.

Snow Depth

Station Depth Elevation

Earthquake Activity

City Distance Mag. Time & Date
Minimum magnitude displayed is 2.5.

Coastal Water Temperatures

Place Temperature

Stations

Nearby Weather Stations

Station Location Temp. Windchill Dew Point Humidity Wind Precip. Elev Updated Type